Time;durP1;ratioP1;P1;durP2;ratioP2;P2;SDS_P1;SDS_P2;PMS_P1;PMS_P2;Temp;Humidity;BMP_temperature;BMP_pressure;BME280_temperature;BME280_humidity;BME280_pressure;Samples;Min_cycle;Max_cycle;Signal;HPM_P1;HPM_P2
2024/01/09 00:00:27;;;;;;;9.85;3.20;;;;;;;-4.58;100.00;103635.44;7327443;19;20206;-37
2024/01/09 00:02:59;;;;;;;7.28;2.75;;;;;;;-4.71;100.00;103635.19;7349104;19;20553;-37
2024/01/09 00:05:32;;;;;;;4.45;2.30;;;;;;;-4.65;100.00;103638.63;7326654;19;20193;-37
2024/01/09 00:08:01;;;;;;;13.73;5.65;;;;;;;-4.70;100.00;103634.50;7346697;19;20219;-38
2024/01/09 00:10:31;;;;;;;6.45;2.80;;;;;;;-4.78;100.00;103626.72;7326875;19;20202;-37
2024/01/09 00:13:01;;;;;;;7.55;2.83;;;;;;;-4.78;100.00;103629.25;7347024;19;20563;-37
2024/01/09 00:15:30;;;;;;;9.65;3.15;;;;;;;-4.78;100.00;103626.72;7326222;19;20261;-40
2024/01/09 00:18:02;;;;;;;5.93;2.40;;;;;;;-4.80;100.00;103625.59;7349218;19;20265;-37
2024/01/09 00:20:32;;;;;;;5.72;2.00;;;;;;;-4.98;100.00;103618.69;7326690;19;20293;-37
2024/01/09 00:23:02;;;;;;;5.63;2.78;;;;;;;-5.07;100.00;103615.69;7346012;19;20669;-37
2024/01/09 00:25:31;;;;;;;6.70;2.22;;;;;;;-4.95;100.00;103615.72;7326922;19;20223;-37
2024/01/09 00:28:01;;;;;;;6.25;2.70;;;;;;;-4.99;100.00;103618.47;7347237;19;20194;-37
2024/01/09 00:30:31;;;;;;;9.15;2.55;;;;;;;-5.01;100.00;103611.59;7326708;19;20306;-38
2024/01/09 00:33:03;;;;;;;8.93;2.40;;;;;;;-4.91;100.00;103607.94;7347931;19;20190;-39
2024/01/09 00:35:33;;;;;;;5.00;2.20;;;;;;;-4.91;100.00;103610.47;7327083;19;20218;-37
2024/01/09 00:38:02;;;;;;;5.15;2.00;;;;;;;-4.98;100.00;103611.13;7345396;19;21160;-37
2024/01/09 00:40:32;;;;;;;5.57;2.38;;;;;;;-4.99;100.00;103603.38;7326705;19;20202;-38
2024/01/09 00:43:01;;;;;;;4.60;2.42;;;;;;;-4.97;100.00;103600.38;7347234;19;20261;-37
2024/01/09 00:45:31;;;;;;;7.95;2.47;;;;;;;-4.97;100.00;103599.47;7326597;19;20200;-37
2024/01/09 00:48:07;;;;;;;4.47;2.00;;;;;;;-4.97;100.00;103591.91;7346684;19;20198;-37
2024/01/09 00:50:37;;;;;;;6.57;2.70;;;;;;;-4.89;100.00;103594.91;7325752;19;20231;-37
2024/01/09 00:53:07;;;;;;;5.53;2.70;;;;;;;-4.98;100.00;103590.97;7325834;19;20202;-37
2024/01/09 00:55:37;;;;;;;5.15;2.20;;;;;;;-5.06;100.00;103593.97;7347376;19;20197;-37
2024/01/09 00:58:06;;;;;;;6.55;2.88;;;;;;;-5.13;100.00;103593.72;7325023;19;20211;-36
2024/01/09 01:00:36;;;;;;;12.73;4.18;;;;;;;-5.19;100.00;103589.59;7346531;19;20227;-37
2024/01/09 01:03:08;;;;;;;5.65;2.30;;;;;;;-5.12;100.00;103582.97;7324303;19;20273;-37
2024/01/09 01:05:38;;;;;;;7.47;2.75;;;;;;;-5.02;100.00;103589.59;7346909;19;20211;-37
2024/01/09 01:08:08;;;;;;;5.03;2.55;;;;;;;-5.08;100.00;103578.63;7330255;19;20233;-38
2024/01/09 01:10:38;;;;;;;5.80;2.58;;;;;;;-5.07;100.00;103580.44;7352715;19;20201;-37
2024/01/09 01:13:07;;;;;;;5.63;2.72;;;;;;;-5.12;100.00;103571.31;7330752;19;20198;-36
2024/01/09 01:15:37;;;;;;;6.63;2.75;;;;;;;-5.13;100.00;103574.47;7352236;19;20197;-36
2024/01/09 01:18:09;;;;;;;7.65;3.10;;;;;;;-5.16;100.00;103569.94;7330562;19;20216;-43
2024/01/09 01:20:39;;;;;;;3.97;2.20;;;;;;;-5.19;100.00;103578.59;7351571;19;20281;-37
2024/01/09 01:23:09;;;;;;;9.07;3.03;;;;;;;-5.16;100.00;103577.50;7328167;19;20201;-37
2024/01/09 01:25:39;;;;;;;7.07;2.92;;;;;;;-5.14;100.00;103557.53;7351754;19;20210;-38
2024/01/09 01:28:08;;;;;;;6.32;2.70;;;;;;;-5.10;100.00;103558.91;7330232;19;20205;-37
2024/01/09 01:30:38;;;;;;;12.98;2.65;;;;;;;-5.24;100.00;103560.28;7352340;19;20202;-37
2024/01/09 01:33:10;;;;;;;6.35;2.47;;;;;;;-5.20;100.00;103556.63;7331902;19;20226;-37
2024/01/09 01:35:40;;;;;;;10.40;3.70;;;;;;;-5.08;100.00;103552.53;7352755;19;20683;-37
2024/01/09 01:38:10;;;;;;;9.90;3.55;;;;;;;-5.11;100.00;103553.00;7329344;19;20194;-38
2024/01/09 01:40:39;;;;;;;16.20;6.63;;;;;;;-5.06;100.00;103559.63;7352794;19;20236;-37
2024/01/09 01:43:09;;;;;;;7.68;2.55;;;;;;;-5.23;100.00;103561.22;7331182;19;20627;-37
2024/01/09 01:45:38;;;;;;;8.15;3.15;;;;;;;-5.11;100.00;103553.00;7351005;19;20202;-38
2024/01/09 01:48:11;;;;;;;7.60;2.75;;;;;;;-5.07;100.00;103554.34;7331481;19;20207;-38
2024/01/09 01:50:41;;;;;;;8.45;2.83;;;;;;;-5.10;100.00;103551.38;7352218;19;20214;-37
2024/01/09 01:53:11;;;;;;;38.60;13.43;;;;;;;-4.79;100.00;103540.81;7331894;19;20695;-37
2024/01/09 01:55:41;;;;;;;19.88;6.88;;;;;;;-4.70;100.00;103536.22;7351660;19;20191;-37
2024/01/09 01:58:11;;;;;;;12.23;4.13;;;;;;;-4.72;100.00;103520.00;7328888;19;20254;-37
2024/01/09 02:00:41;;;;;;;11.70;3.80;;;;;;;-4.93;100.00;103519.53;7350318;19;20202;-38
2024/01/09 02:03:14;;;;;;;29.70;9.90;;;;;;;-5.03;100.00;103502.16;7329921;19;20198;-37
2024/01/09 02:05:44;;;;;;;16.75;6.53;;;;;;;-5.03;100.00;103502.16;7350103;19;20194;-38
2024/01/09 02:08:15;;;;;;;16.25;5.65;;;;;;;-5.07;100.00;103499.84;7328856;19;20197;-37
2024/01/09 02:10:45;;;;;;;24.48;8.57;;;;;;;-4.91;100.00;103487.94;7347015;19;20202;-40
2024/01/09 02:13:15;;;;;;;10.75;5.30;;;;;;;-4.88;100.00;103495.03;7330479;19;20198;-38
2024/01/09 02:15:45;;;;;;;7.82;3.20;;;;;;;-5.31;100.00;103499.63;7352448;19;20194;-38
2024/01/09 02:18:17;;;;;;;9.38;2.83;;;;;;;-5.46;100.00;103500.75;7328089;19;20202;-37
2024/01/09 02:20:47;;;;;;;7.47;3.20;;;;;;;-5.51;100.00;103506.69;7351379;19;20210;-37
2024/01/09 02:23:16;;;;;;;9.63;3.95;;;;;;;-5.37;100.00;103509.72;7327008;19;20580;-37
2024/01/09 02:25:46;;;;;;;10.52;3.05;;;;;;;-5.29;100.00;103505.81;7351695;19;20260;-37
2024/01/09 02:28:19;;;;;;;9.13;3.58;;;;;;;-5.50;100.00;103518.63;7329481;19;20252;-37
2024/01/09 02:30:53;;;;;;;7.50;3.30;;;;;;;-5.41;100.00;103504.91;7352049;19;20565;-37
2024/01/09 02:33:23;;;;;;;6.72;3.08;;;;;;;-5.50;100.00;103509.47;7329450;19;20201;-37
2024/01/09 02:35:53;;;;;;;14.10;4.28;;;;;;;-5.42;100.00;103509.00;7351385;19;20724;-37
2024/01/09 02:38:23;;;;;;;13.45;3.67;;;;;;;-5.30;100.00;103514.06;7329528;19;20220;-38
2024/01/09 02:40:52;;;;;;;7.97;3.03;;;;;;;-5.46;100.00;103510.84;7346971;19;20202;-38
2024/01/09 02:43:22;;;;;;;9.30;2.90;;;;;;;-5.56;100.00;103513.56;7325679;19;20190;-38
2024/01/09 02:45:54;;;;;;;7.03;3.95;;;;;;;-5.72;100.00;103522.91;7351178;19;20227;-38
2024/01/09 02:48:24;;;;;;;5.95;3.20;;;;;;;-5.79;100.00;103522.66;7327073;19;20210;-37
2024/01/09 02:50:54;;;;;;;8.75;3.42;;;;;;;-5.75;100.00;103514.91;7351709;19;20205;-37
2024/01/09 02:53:23;;;;;;;9.25;3.40;;;;;;;-5.69;100.00;103520.88;7318987;19;20261;-38
2024/01/09 02:55:53;;;;;;;10.88;4.82;;;;;;;-5.93;100.00;103525.59;7351406;19;20194;-35
2024/01/09 02:58:22;;;;;;;10.45;3.80;;;;;;;-5.89;100.00;103521.25;7329551;19;20224;-37
2024/01/09 03:00:55;;;;;;;7.03;3.45;;;;;;;-5.76;100.00;103518.09;7351467;19;20227;-37
2024/01/09 03:03:24;;;;;;;8.02;2.92;;;;;;;-5.90;100.00;103514.41;7329002;19;20201;-37
2024/01/09 03:05:54;;;;;;;9.18;3.40;;;;;;;-5.86;100.00;103516.72;7352788;19;20206;-38
2024/01/09 03:08:24;;;;;;;5.93;3.25;;;;;;;-5.86;100.00;103513.25;7327760;19;20559;-38
2024/01/09 03:10:54;;;;;;;8.15;3.25;;;;;;;-5.87;100.00;103518.97;7351391;19;20206;-37
2024/01/09 03:13:24;;;;;;;6.53;3.05;;;;;;;-5.90;100.00;103526.97;7329131;19;20269;-38
2024/01/09 03:15:56;;;;;;;6.70;3.40;;;;;;;-5.96;100.00;103529.47;7351014;19;20388;-37
2024/01/09 03:18:26;;;;;;;10.43;4.38;;;;;;;-6.11;100.00;103538.13;7329423;19;20679;-38
2024/01/09 03:20:56;;;;;;;9.20;4.57;;;;;;;-6.27;100.00;103534.88;7350888;19;20210;-40
2024/01/09 03:23:26;;;;;;;8.00;3.80;;;;;;;-6.30;100.00;103523.41;7348270;19;20269;-37
2024/01/09 03:25:55;;;;;;;9.45;4.07;;;;;;;-6.29;100.00;103525.25;7327303;19;20209;-38
2024/01/09 03:28:25;;;;;;;18.42;6.68;;;;;;;-6.17;100.00;103512.06;7348566;19;20198;-37
2024/01/09 03:30:57;;;;;;;13.18;4.28;;;;;;;-6.12;100.00;103503.63;7327189;19;20696;-37
2024/01/09 03:33:28;;;;;;;13.73;3.75;;;;;;;-6.14;100.00;103492.44;7348851;19;20198;-37
2024/01/09 03:35:58;;;;;;;9.43;4.28;;;;;;;-6.35;100.00;103495.06;7327603;19;20204;-37
2024/01/09 03:38:28;;;;;;;8.93;4.20;;;;;;;-6.38;100.00;103495.53;7347914;19;20198;-38
2024/01/09 03:40:57;;;;;;;13.13;4.78;;;;;;;-6.33;100.00;103482.72;7322508;19;20257;-37
2024/01/09 03:43:27;;;;;;;12.38;4.70;;;;;;;-6.30;100.00;103480.69;7348855;19;20196;-37
2024/01/09 03:45:59;;;;;;;11.65;4.20;;;;;;;-6.31;100.00;103472.22;7327122;19;20190;-39
2024/01/09 03:48:29;;;;;;;13.15;4.70;;;;;;;-6.25;100.00;103477.28;7348117;19;20194;-37
2024/01/09 03:50:59;;;;;;;10.90;5.00;;;;;;;-6.24;100.00;103480.03;7327000;19;20186;-37
2024/01/09 03:53:28;;;;;;;10.65;5.07;;;;;;;-6.08;100.00;103471.41;7347789;19;20234;-37
2024/01/09 03:55:58;;;;;;;9.35;4.15;;;;;;;-6.13;100.00;103468.19;7327144;19;20194;-38
2024/01/09 03:58:27;;;;;;;11.15;4.55;;;;;;;-6.14;100.00;103462.25;7347325;19;20197;-37
2024/01/09 04:01:00;;;;;;;8.20;4.30;;;;;;;-6.23;100.00;103460.84;7326276;19;20206;-37
2024/01/09 04:03:29;;;;;;;9.32;5.25;;;;;;;-6.33;100.00;103472.66;7348245;19;20265;-38
2024/01/09 04:05:59;;;;;;;14.02;5.25;;;;;;;-6.18;100.00;103470.00;7327295;19;20211;-37
2024/01/09 04:08:28;;;;;;;9.80;4.60;;;;;;;-6.19;100.00;103468.19;7347507;19;20202;-38
2024/01/09 04:10:58;;;;;;;8.48;4.38;;;;;;;-6.14;100.00;103464.78;7322860;19;20206;-38
2024/01/09 04:13:28;;;;;;;10.77;4.53;;;;;;;-6.25;100.00;103472.28;7347648;19;20190;-38
2024/01/09 04:16:00;;;;;;;8.85;4.38;;;;;;;-6.22;100.00;103476.84;7326806;19;20190;-39
2024/01/09 04:18:29;;;;;;;13.48;4.47;;;;;;;-6.31;100.00;103481.38;7347211;19;20214;-40
2024/01/09 04:20:59;;;;;;;8.48;4.20;;;;;;;-6.41;100.00;103479.94;7294590;19;20190;-37
2024/01/09 04:23:29;;;;;;;37.35;12.18;;;;;;;-5.84;100.00;103462.50;7348151;19;20212;-39
2024/01/09 04:25:59;;;;;;;12.98;6.65;;;;;;;-5.70;100.00;103456.13;7326061;19;20221;-37
2024/01/09 04:28:28;;;;;;;14.18;5.60;;;;;;;-5.80;100.00;103447.91;7347024;19;20211;-38
2024/01/09 04:31:00;;;;;;;11.98;6.05;;;;;;;-5.87;100.00;103441.94;7326249;19;20194;-36
2024/01/09 04:33:30;;;;;;;15.75;6.35;;;;;;;-5.65;100.00;103431.69;7347800;19;20190;-38
2024/01/09 04:36:00;;;;;;;12.05;4.75;;;;;;;-5.86;100.00;103436.22;7326097;19;20215;-37
2024/01/09 04:38:30;;;;;;;12.90;5.10;;;;;;;-5.83;100.00;103434.16;7347118;19;20190;-39
2024/01/09 04:40:59;;;;;;;15.10;6.30;;;;;;;-5.77;100.00;103435.75;7299960;19;20196;-37
2024/01/09 04:43:29;;;;;;;11.43;5.20;;;;;;;-6.03;100.00;103440.31;7347535;19;20198;-38
2024/01/09 04:46:01;;;;;;;13.13;5.65;;;;;;;-6.21;100.00;103446.91;7325332;19;20281;-38
2024/01/09 04:48:31;;;;;;;11.18;4.70;;;;;;;-6.27;100.00;103451.00;7346222;19;20198;-37
2024/01/09 04:51:01;;;;;;;12.90;5.75;;;;;;;-6.22;100.00;103437.53;7325949;19;20663;-37
2024/01/09 04:53:30;;;;;;;10.45;5.22;;;;;;;-6.27;100.00;103446.88;7340824;19;20586;-37
2024/01/09 04:56:00;;;;;;;17.00;6.50;;;;;;;-6.34;100.00;103445.72;7327059;19;20186;-37
2024/01/09 04:58:30;;;;;;;14.10;5.00;;;;;;;-6.43;100.00;103445.22;7345920;19;20202;-37
2024/01/09 05:01:02;;;;;;;14.45;5.68;;;;;;;-6.49;100.00;103450.22;7324099;19;20589;-37
2024/01/09 05:03:31;;;;;;;11.80;5.25;;;;;;;-6.49;100.00;103455.25;7345426;19;20708;-38
2024/01/09 05:06:01;;;;;;;10.15;4.80;;;;;;;-6.50;100.00;103453.44;7323162;19;20263;-38
2024/01/09 05:08:31;;;;;;;11.00;4.78;;;;;;;-6.55;100.00;103449.28;7341564;19;20607;-37
2024/01/09 05:11:01;;;;;;;13.43;5.30;;;;;;;-6.49;100.00;103452.75;7320828;19;20198;-36
2024/01/09 05:13:31;;;;;;;12.18;5.35;;;;;;;-6.38;100.00;103460.34;7345117;19;20671;-38
2024/01/09 05:16:04;;;;;;;9.57;4.80;;;;;;;-6.41;100.00;103466.50;7325408;19;20198;-37
2024/01/09 05:18:34;;;;;;;8.80;4.53;;;;;;;-6.44;100.00;103461.91;7339911;19;20201;-40
2024/01/09 05:21:04;;;;;;;11.57;5.15;;;;;;;-6.57;100.00;103463.22;7344191;19;20202;-37
2024/01/09 05:23:34;;;;;;;14.05;5.45;;;;;;;-6.51;100.00;103476.72;7335559;19;20588;-37
2024/01/09 05:26:03;;;;;;;10.63;4.75;;;;;;;-6.53;100.00;103473.03;7315530;19;20213;-38
2024/01/09 05:28:33;;;;;;;9.25;4.40;;;;;;;-6.50;100.00;103468.50;7344117;19;20709;-40
2024/01/09 05:31:06;;;;;;;13.13;4.95;;;;;;;-6.64;100.00;103476.41;7323551;19;20206;-37
2024/01/09 05:33:36;;;;;;;10.77;5.28;;;;;;;-6.57;100.00;103486.72;7343077;19;20222;-38
2024/01/09 05:36:07;;;;;;;15.38;5.72;;;;;;;-6.54;100.00;103471.22;7323435;19;20202;-38
2024/01/09 05:38:37;;;;;;;15.00;5.55;;;;;;;-6.49;100.00;103481.97;7344207;19;20678;-36
2024/01/09 05:41:06;;;;;;;12.63;5.25;;;;;;;-6.41;100.00;103482.47;7318573;19;20221;-37
2024/01/09 05:43:36;;;;;;;14.35;5.68;;;;;;;-6.42;100.00;103485.66;7339490;19;20190;-38
2024/01/09 05:46:09;;;;;;;13.90;5.53;;;;;;;-6.56;100.00;103490.16;7322310;19;20205;-39
2024/01/09 05:48:40;;;;;;;11.20;5.68;;;;;;;-6.50;100.00;103493.63;7304482;19;20265;-39
2024/01/09 05:51:10;;;;;;;14.50;6.13;;;;;;;-6.37;100.00;103487.28;7322864;19;20258;-38
2024/01/09 05:53:40;;;;;;;12.93;5.50;;;;;;;-6.56;100.00;103492.69;7350126;19;20274;-37
2024/01/09 05:56:10;;;;;;;13.77;6.55;;;;;;;-6.51;100.00;103499.34;7330066;19;20201;-39
2024/01/09 05:58:40;;;;;;;14.30;6.22;;;;;;;-6.62;100.00;103501.78;7350361;19;20223;-38
2024/01/09 06:01:13;;;;;;;13.35;6.10;;;;;;;-6.71;100.00;103502.19;7351356;19;20277;-38
2024/01/09 06:03:42;;;;;;;11.80;5.75;;;;;;;-6.70;100.00;103499.00;7328331;19;20198;-42
2024/01/09 06:06:12;;;;;;;13.32;5.70;;;;;;;-6.61;100.00;103493.56;7352356;19;20186;-36
2024/01/09 06:08:42;;;;;;;13.82;6.22;;;;;;;-6.54;100.00;103501.38;7329246;19;20203;-39
2024/01/09 06:11:12;;;;;;;14.52;6.18;;;;;;;-6.67;100.00;103499.47;7335960;19;20223;-35
2024/01/09 06:13:41;;;;;;;18.77;7.57;;;;;;;-6.58;100.00;103499.97;7350229;19;20194;-37
2024/01/09 06:16:14;;;;;;;18.02;7.47;;;;;;;-6.49;100.00;103489.50;7350358;19;20709;-37
2024/01/09 06:18:43;;;;;;;22.48;8.25;;;;;;;-6.30;100.00;103483.22;7328047;19;20269;-38
2024/01/09 06:21:13;;;;;;;26.27;8.55;;;;;;;-6.33;100.00;103483.66;7327563;19;20730;-38
2024/01/09 06:23:47;;;;;;;16.85;7.38;;;;;;;-6.37;100.00;103486.38;7350341;19;20233;-40
2024/01/09 06:26:17;;;;;;;16.90;7.30;;;;;;;-6.46;100.00;103495.00;7327666;19;20208;-38
2024/01/09 06:28:46;;;;;;;17.58;6.90;;;;;;;-6.63;100.00;103497.44;7349693;19;20198;-37
2024/01/09 06:31:19;;;;;;;14.60;6.50;;;;;;;-6.68;100.00;103494.19;7328025;19;20198;-37
2024/01/09 06:33:48;;;;;;;14.32;6.38;;;;;;;-6.76;100.00;103495.53;7349813;19;20277;-41
2024/01/09 06:36:18;;;;;;;20.33;7.55;;;;;;;-6.94;100.00;103492.00;7330005;19;20214;-39
2024/01/09 06:38:48;;;;;;;14.88;6.80;;;;;;;-7.18;100.00;103504.13;7348998;19;20198;-38
2024/01/09 06:41:17;;;;;;;18.23;6.25;;;;;;;-7.23;100.00;103510.03;7325570;19;20194;-39
2024/01/09 06:43:47;;;;;;;15.60;6.47;;;;;;;-7.27;100.00;103510.22;7351393;19;20198;-42
2024/01/09 06:46:19;;;;;;;15.85;6.22;;;;;;;-7.27;100.00;103503.59;7327863;19;20297;-42
2024/01/09 06:48:49;;;;;;;9.70;4.75;;;;;;;-7.26;100.00;103500.41;7349108;19;20209;-41
2024/01/09 06:51:19;;;;;;;17.63;7.20;;;;;;;-7.26;100.00;103500.41;7328248;19;20214;-39
2024/01/09 06:53:48;;;;;;;19.00;7.32;;;;;;;-7.25;100.00;103494.72;7343762;19;20205;-40
2024/01/09 06:56:18;;;;;;;12.88;5.90;;;;;;;-7.23;100.00;103490.84;7327388;19;20237;-39
2024/01/09 06:58:47;;;;;;;17.65;7.60;;;;;;;-7.16;100.00;103490.22;7389795;19;20131;-42
2024/01/09 07:01:23;;;;;;;18.05;7.38;;;;;;;-7.22;100.00;103491.78;7392680;19;20145;-39
2024/01/09 07:03:53;;;;;;;17.20;6.80;;;;;;;-6.99;100.00;103484.44;7391902;19;20146;-40
2024/01/09 07:06:24;;;;;;;19.30;7.05;;;;;;;-6.80;100.00;103478.16;7392533;19;20131;-42
2024/01/09 07:08:54;;;;;;;16.65;8.15;;;;;;;-6.97;100.00;103475.53;7391521;19;20159;-39
2024/01/09 07:11:23;;;;;;;21.02;6.78;;;;;;;-7.07;100.00;103478.22;7392383;19;20142;-39
2024/01/09 07:13:53;;;;;;;17.27;7.55;;;;;;;-7.20;100.00;103476.28;7395398;19;20139;-42
2024/01/09 07:16:26;;;;;;;15.15;6.97;;;;;;;-7.22;100.00;103477.63;7392078;19;20174;-42
2024/01/09 07:18:56;;;;;;;16.45;6.25;;;;;;;-7.23;100.00;103474.88;7391074;19;20179;-41
2024/01/09 07:21:25;;;;;;;17.73;7.72;;;;;;;-7.19;100.00;103478.13;7392001;19;20153;-47
2024/01/09 07:23:55;;;;;;;18.15;7.30;;;;;;;-7.05;100.00;103476.84;7394817;19;20151;-40
2024/01/09 07:26:25;;;;;;;17.42;7.57;;;;;;;-7.07;100.00;103470.69;7397137;19;20180;-40
2024/01/09 07:28:54;;;;;;;15.77;6.28;;;;;;;-7.00;100.00;103470.94;7390112;19;20150;-41
2024/01/09 07:31:26;;;;;;;23.95;8.00;;;;;;;-6.93;100.00;103471.22;7391264;19;20151;-41
2024/01/09 07:33:56;;;;;;;17.80;7.40;;;;;;;-6.88;100.00;103471.94;7391931;19;20134;-39
2024/01/09 07:36:28;;;;;;;25.25;9.57;;;;;;;-6.92;100.00;103464.63;7385505;19;20151;-38
2024/01/09 07:38:58;;;;;;;18.08;6.13;;;;;;;-6.84;100.00;103468.28;7384098;19;20197;-40
2024/01/09 07:41:28;;;;;;;17.20;7.47;;;;;;;-6.78;100.00;103462.66;7388777;19;20149;-42
2024/01/09 07:43:58;;;;;;;21.30;7.45;;;;;;;-6.82;100.00;103471.97;7363837;19;20229;-40
2024/01/09 07:46:30;;;;;;;18.55;7.18;;;;;;;-6.93;100.00;103472.81;7346200;19;20597;-43
2024/01/09 07:49:00;;;;;;;17.70;8.02;;;;;;;-7.00;100.00;103470.03;7325374;19;20582;-41
2024/01/09 07:51:30;;;;;;;17.73;7.43;;;;;;;-7.00;100.00;103475.03;7349420;19;20837;-42
2024/01/09 07:53:59;;;;;;;17.38;7.40;;;;;;;-7.01;100.00;103468.19;7325153;19;20190;-41
2024/01/09 07:56:29;;;;;;;14.50;6.75;;;;;;;-7.07;100.00;103464.03;7347408;19;20213;-44
2024/01/09 07:58:58;;;;;;;19.58;7.20;;;;;;;-7.15;100.00;103471.97;7324400;19;20833;-40
2024/01/09 08:01:31;;;;;;;16.50;8.00;;;;;;;-7.12;100.00;103472.47;7347147;19;20197;-43
2024/01/09 08:04:00;;;;;;;19.85;8.10;;;;;;;-7.21;100.00;103473.53;7326638;19;20193;-41
2024/01/09 08:06:30;;;;;;;17.63;8.20;;;;;;;-7.05;100.00;103479.34;7345800;19;20691;-39
2024/01/09 08:08:59;;;;;;;25.10;8.48;;;;;;;-6.62;100.00;103466.63;7324787;19;20227;-40
2024/01/09 08:11:29;;;;;;;17.27;8.55;;;;;;;-6.57;100.00;103468.25;7347519;19;20674;-39
2024/01/09 08:13:59;;;;;;;38.42;14.57;;;;;;;-6.60;100.00;103465.25;7326154;19;20589;-39
2024/01/09 08:16:31;;;;;;;23.45;8.70;;;;;;;-6.47;100.00;103468.97;7345885;19;20672;-38
2024/01/09 08:19:01;;;;;;;43.83;14.70;;;;;;;-6.50;100.00;103466.00;7325157;19;20205;-41
2024/01/09 08:21:31;;;;;;;27.13;10.02;;;;;;;-6.39;100.00;103468.56;7348411;19;20197;-42
2024/01/09 08:24:01;;;;;;;18.17;7.90;;;;;;;-6.11;100.00;103466.81;7325376;19;20223;-39
2024/01/09 08:26:30;;;;;;;14.82;7.25;;;;;;;-5.98;100.00;103468.00;7345652;19;20261;-41
2024/01/09 08:29:01;;;;;;;27.10;9.75;;;;;;;-5.77;100.00;103465.94;7324867;19;20226;-41
2024/01/09 08:31:33;;;;;;;23.40;7.68;;;;;;;-5.65;100.00;103479.47;7345246;19;20190;-39
2024/01/09 08:34:03;;;;;;;25.40;8.63;;;;;;;-5.61;100.00;103475.13;7325774;19;20259;-42
2024/01/09 08:36:33;;;;;;;28.85;10.57;;;;;;;-5.54;100.00;103476.06;7345828;19;20207;-42
2024/01/09 08:39:02;;;;;;;26.25;10.80;;;;;;;-5.63;100.00;103486.59;7326121;19;20204;-40
2024/01/09 08:41:32;;;;;;;20.63;7.95;;;;;;;-5.51;100.00;103486.56;7345831;19;20273;-40
2024/01/09 08:44:02;;;;;;;16.88;8.38;;;;;;;-5.76;100.00;103483.78;7320822;19;20207;-39
2024/01/09 08:46:34;;;;;;;18.30;7.85;;;;;;;-5.98;100.00;103490.63;7339315;19;20597;-40
2024/01/09 08:49:04;;;;;;;18.17;7.57;;;;;;;-5.97;100.00;103491.50;7320150;19;20262;-42
2024/01/09 08:51:35;;;;;;;18.58;8.63;;;;;;;-5.87;100.00;103494.75;7346465;19;20205;-44
2024/01/09 08:54:07;;;;;;;16.05;7.70;;;;;;;-5.90;100.00;103498.41;7325059;19;20194;-41
2024/01/09 08:56:37;;;;;;;40.13;13.82;;;;;;;-5.79;100.00;103500.03;7345075;19;20634;-40
2024/01/09 08:59:07;;;;;;;24.30;9.70;;;;;;;-5.85;100.00;103500.94;7325255;19;20190;-40
2024/01/09 09:01:39;;;;;;;16.63;7.10;;;;;;;-5.80;100.00;103501.63;7346129;19;20198;-40
2024/01/09 09:04:09;;;;;;;15.45;7.88;;;;;;;-5.76;100.00;103498.88;7325431;19;20620;-41
2024/01/09 09:06:39;;;;;;;15.50;7.30;;;;;;;-5.73;100.00;103495.94;7345105;19;20269;-41
2024/01/09 09:09:09;;;;;;;16.23;7.47;;;;;;;-5.59;100.00;103491.38;7324903;19;20522;-41
2024/01/09 09:11:38;;;;;;;19.52;8.73;;;;;;;-5.55;100.00;103495.25;7346267;19;20198;-42
2024/01/09 09:14:08;;;;;;;16.95;8.25;;;;;;;-5.46;100.00;103496.66;7326992;19;20190;-41
2024/01/09 09:16:41;;;;;;;17.65;7.00;;;;;;;-5.36;100.00;103506.50;7344691;19;20209;-41
2024/01/09 09:19:12;;;;;;;16.23;6.43;;;;;;;-5.35;100.00;103504.88;7324289;19;20190;-41
2024/01/09 09:21:42;;;;;;;14.40;6.95;;;;;;;-5.20;100.00;103499.66;7340211;19;20202;-38
2024/01/09 09:24:12;;;;;;;16.55;7.65;;;;;;;-5.17;100.00;103502.59;7345771;19;20195;-41
2024/01/09 09:26:41;;;;;;;16.38;7.20;;;;;;;-5.07;100.00;103514.06;7343980;19;20281;-41
2024/01/09 09:29:13;;;;;;;18.13;7.30;;;;;;;-5.09;100.00;103506.28;7332201;19;20190;-41
2024/01/09 09:32:02;;;;;;;13.20;6.10;;;;;;;-4.99;100.00;103513.59;7330988;19;20228;-41
2024/01/09 09:34:32;;;;;;;21.88;9.77;;;;;;;-4.88;100.00;103507.63;7352255;19;20278;-41
2024/01/09 09:37:01;;;;;;;15.32;6.57;;;;;;;-4.89;100.00;103505.78;7331131;19;20309;-41
2024/01/09 09:39:31;;;;;;;15.95;6.28;;;;;;;-4.76;100.00;103509.44;7352558;19;20223;-41
2024/01/09 09:42:01;;;;;;;11.73;5.78;;;;;;;-4.57;100.00;103511.25;7328889;19;20583;-40
2024/01/09 09:44:32;;;;;;;12.68;5.63;;;;;;;-4.47;100.00;103505.25;7350693;19;20187;-41
2024/01/09 09:47:05;;;;;;;14.75;6.00;;;;;;;-4.42;100.00;103500.00;7329214;19;20856;-42
2024/01/09 09:49:37;;;;;;;13.82;6.82;;;;;;;-4.43;100.00;103503.16;7352903;19;20250;-41
2024/01/09 09:52:08;;;;;;;14.02;6.40;;;;;;;-4.35;100.00;103505.22;7331811;19;20204;-40
2024/01/09 09:54:38;;;;;;;14.43;6.03;;;;;;;-4.30;100.00;103506.81;7352065;19;20194;-41
2024/01/09 09:57:08;;;;;;;17.35;7.75;;;;;;;-4.16;100.00;103506.28;7330212;19;20226;-40
2024/01/09 09:59:37;;;;;;;15.38;5.72;;;;;;;-4.09;100.00;103514.03;7350787;19;20640;-41
2024/01/09 10:02:13;;;;;;;11.23;5.00;;;;;;;-4.08;100.00;103505.81;7330305;19;20198;-42
2024/01/09 10:04:48;;;;;;;14.15;5.50;;;;;;;-3.96;100.00;103514.22;7339518;19;20198;-40
2024/01/09 10:07:18;;;;;;;11.98;5.43;;;;;;;-3.93;100.00;103514.66;7350409;19;20214;-44
2024/01/09 10:09:56;;;;;;;13.98;5.63;;;;;;;-3.91;100.00;103512.34;7328476;19;20198;-41
2024/01/09 10:12:25;;;;;;;11.45;6.07;;;;;;;-3.80;100.00;103518.94;7350720;19;20198;-41
2024/01/09 10:15:09;;;;;;;17.15;7.05;;;;;;;-3.69;100.00;103518.88;7329558;19;20194;-40
2024/01/09 10:17:43;;;;;;;19.08;6.80;;;;;;;-3.69;100.00;103521.41;7351621;19;20680;-40
2024/01/09 10:20:15;;;;;;;25.55;10.07;;;;;;;-3.74;100.00;103526.50;7330956;19;20212;-40
2024/01/09 10:22:45;;;;;;;13.10;6.00;;;;;;;-3.56;100.00;103518.13;7330274;19;20192;-40
2024/01/09 10:25:17;;;;;;;12.48;6.10;;;;;;;-3.56;100.00;103528.22;7351451;19;20201;-40
2024/01/09 10:27:47;;;;;;;14.65;7.15;;;;;;;-3.62;100.00;103522.28;7326931;19;20293;-42
2024/01/09 10:30:19;;;;;;;12.57;6.13;;;;;;;-3.56;100.00;103519.06;7350826;19;20667;-41
2024/01/09 10:32:53;;;;;;;32.03;13.18;;;;;;;-3.50;100.00;103525.69;7328388;19;20205;-41
2024/01/09 10:35:23;;;;;;;13.82;7.55;;;;;;;-3.44;100.00;103524.94;7344645;19;20189;-41
2024/01/09 10:37:56;;;;;;;16.35;6.70;;;;;;;-3.24;100.00;103513.31;7328449;19;20631;-41
2024/01/09 10:40:29;;;;;;;13.90;6.55;;;;;;;-3.27;100.00;103524.78;7347154;19;20567;-40
2024/01/09 10:42:58;;;;;;;70.68;24.80;;;;;;;-3.29;100.00;103527.81;7327024;19;20190;-40
2024/01/09 10:45:28;;;;;;;24.50;8.23;;;;;;;-3.16;100.00;103527.94;7351451;19;20194;-40
2024/01/09 10:48:01;;;;;;;16.77;7.68;;;;;;;-3.12;100.00;103537.81;7326752;19;20209;-41
2024/01/09 10:50:31;;;;;;;12.52;5.82;;;;;;;-3.07;100.00;103535.91;7349849;19;20198;-43
2024/01/09 10:53:01;;;;;;;11.07;5.60;;;;;;;-3.02;100.00;103552.66;7328577;19;20265;-40
2024/01/09 10:55:31;;;;;;;12.50;5.80;;;;;;;-3.02;100.00;103547.59;7349662;19;20954;-41
2024/01/09 10:58:01;;;;;;;14.52;6.22;;;;;;;-3.10;100.00;103553.16;7327221;19;21851;-41
2024/01/09 11:00:30;;;;;;;14.48;6.70;;;;;;;-3.08;100.00;103549.25;7350729;19;20201;-40
2024/01/09 11:03:03;;;;;;;13.23;6.15;;;;;;;-3.17;100.00;103547.22;7328103;19;20193;-41
2024/01/09 11:05:32;;;;;;;27.33;9.80;;;;;;;-3.00;100.00;103541.13;7350411;19;20213;-40
2024/01/09 11:08:03;;;;;;;21.85;8.88;;;;;;;-3.03;100.00;103540.72;7325479;19;20215;-41
2024/01/09 11:10:33;;;;;;;20.58;8.70;;;;;;;-2.99;100.00;103533.78;7350307;19;20556;-41
2024/01/09 11:13:03;;;;;;;15.07;6.30;;;;;;;-2.94;100.00;103534.41;7328205;19;20200;-42
2024/01/09 11:15:36;;;;;;;14.73;6.72;;;;;;;-2.67;100.00;103522.91;7349375;19;20259;-45
2024/01/09 11:18:10;;;;;;;15.25;7.00;;;;;;;-2.86;100.00;103523.75;7327467;19;20209;-41
2024/01/09 11:20:40;;;;;;;21.15;7.25;;;;;;;-2.93;100.00;103513.50;7349553;19;20250;-42
2024/01/09 11:23:12;;;;;;;32.50;12.52;;;;;;;-2.99;100.00;103507.56;7328219;19;20198;-44
2024/01/09 11:25:41;;;;;;;16.20;7.70;;;;;;;-2.91;100.00;103496.97;7348825;19;20583;-42